< < Back
Terminal Aerodrome Forecast


Current Version              Previous Versions:   1  2  3  4  5  6  7  8  9  

Terminal Aerodrome Forecast

742
FTUS44 KMRX 011720
TAFTYS
TAF
KTYS 011720Z 0118/0218 00000KT P6SM OVC025
     FM012100 00000KT 5SM -RA OVC012
     FM020300 00000KT 2SM -RA BR OVC006
     FM021500 30006KT 6SM BR OVC010=



Latest METAR

453
SAUS80 KWBC 021600 RRA
MTRTYS
METAR KTYS 021553Z 03009KT 7SM BKN015 OVC025 04/02 A3043 RMK AO2 SLP306
T00440017


USA.gov is the U.S. government's official web portal to all federal, state and local government web resources and services.